Time;durP1;ratioP1;P1;durP2;ratioP2;P2;SDS_P1;SDS_P2;PMS_P1;PMS_P2;Temp;Humidity;BMP_temperature;BMP_pressure;BME280_temperature;BME280_humidity;BME280_pressure;Samples;Min_cycle;Max_cycle;Signal;HPM_P1;HPM_P2
2021/11/15 00:01:27;;;;;;;18.57;12.03;;;;;;;7.61;99.74;97201.13;5105583;28;20386;-63
2021/11/15 00:03:53;;;;;;;16.75;11.63;;;;;;;7.74;99.46;97201.16;5094183;28;20472;-63
2021/11/15 00:06:18;;;;;;;17.97;11.67;;;;;;;7.66;99.28;97197.91;5094236;28;20494;-63
2021/11/15 00:08:44;;;;;;;18.27;11.15;;;;;;;7.69;99.96;97198.31;5109138;28;20466;-63
2021/11/15 00:11:10;;;;;;;17.07;11.10;;;;;;;7.79;99.06;97190.94;5112372;28;20388;-63
2021/11/15 00:13:36;;;;;;;17.03;10.97;;;;;;;7.72;99.62;97195.31;5096328;28;20384;-63
2021/11/15 00:16:01;;;;;;;19.03;11.77;;;;;;;7.56;100.00;97200.91;5106524;28;20462;-65
2021/11/15 00:18:27;;;;;;;20.27;12.17;;;;;;;7.57;100.00;97189.50;5094414;28;20762;-63
2021/11/15 00:20:52;;;;;;;19.57;11.90;;;;;;;7.68;99.89;97194.13;5094434;28;20869;-63
2021/11/15 00:23:17;;;;;;;18.60;11.33;;;;;;;7.69;99.95;97189.72;5101148;28;20419;-63
2021/11/15 00:25:43;;;;;;;18.60;11.48;;;;;;;7.59;99.84;97190.06;5109735;28;20389;-63
2021/11/15 00:28:08;;;;;;;18.77;11.53;;;;;;;7.44;100.00;97187.63;5102942;28;20394;-62
2021/11/15 00:30:34;;;;;;;20.17;11.20;;;;;;;7.63;100.00;97190.50;5094109;28;20924;-63
2021/11/15 00:32:59;;;;;;;17.80;10.83;;;;;;;7.59;100.00;97189.25;5093146;28;20394;-63
2021/11/15 00:35:25;;;;;;;18.50;11.77;;;;;;;7.53;100.00;97191.66;5094009;28;20911;-63
2021/11/15 00:37:50;;;;;;;19.23;11.70;;;;;;;7.51;100.00;97192.88;5095157;28;20408;-63
2021/11/15 00:40:17;;;;;;;17.33;11.30;;;;;;;7.55;100.00;97199.31;5094130;28;20418;-63
2021/11/15 00:42:43;;;;;;;17.90;10.88;;;;;;;7.51;100.00;97193.69;5091147;28;20406;-62
2021/11/15 00:45:11;;;;;;;18.38;11.55;;;;;;;7.45;100.00;97196.28;5093798;28;20386;-62
2021/11/15 00:47:37;;;;;;;18.05;11.32;;;;;;;7.37;100.00;97204.25;5101620;28;20911;-62
2021/11/15 00:50:05;;;;;;;19.40;11.52;;;;;;;7.40;100.00;97201.28;5114341;28;20431;-62
2021/11/15 00:52:30;;;;;;;19.58;11.75;;;;;;;7.56;100.00;97200.09;5112564;28;20404;-61
2021/11/15 00:54:56;;;;;;;17.87;10.90;;;;;;;7.31;100.00;97199.81;5092185;28;20386;-62
2021/11/15 00:57:21;;;;;;;19.13;11.33;;;;;;;7.29;100.00;97196.63;5101341;28;20909;-62
2021/11/15 00:59:47;;;;;;;16.17;11.07;;;;;;;7.34;100.00;97199.44;5113408;28;20463;-65
2021/11/15 01:02:12;;;;;;;17.43;11.33;;;;;;;7.29;100.00;97197.44;5111006;28;20389;-62
2021/11/15 01:04:38;;;;;;;19.10;11.65;;;;;;;7.41;100.00;97198.44;5113004;28;20395;-62
2021/11/15 01:07:03;;;;;;;18.03;11.00;;;;;;;7.40;100.00;97190.84;5103680;28;20540;-62
2021/11/15 01:09:28;;;;;;;18.25;10.85;;;;;;;7.28;100.00;97193.22;5093281;28;20498;-62
2021/11/15 01:11:55;;;;;;;16.27;10.63;;;;;;;7.28;100.00;97193.22;5094992;28;20447;-62
2021/11/15 01:14:21;;;;;;;19.80;11.35;;;;;;;7.29;100.00;97199.22;5113077;28;20392;-62
2021/11/15 01:16:47;;;;;;;16.70;10.98;;;;;;;7.20;100.00;97203.00;5106605;28;20394;-62
2021/11/15 01:19:14;;;;;;;17.97;10.77;;;;;;;7.29;100.00;97201.84;5103240;28;20729;-62
2021/11/15 01:21:41;;;;;;;15.45;10.05;;;;;;;7.16;100.00;97201.78;5094851;28;20385;-62
2021/11/15 01:24:06;;;;;;;16.30;10.20;;;;;;;7.02;100.00;97203.53;5112933;28;20484;-63
2021/11/15 01:26:32;;;;;;;17.20;10.63;;;;;;;7.19;100.00;97202.19;5095002;28;20492;-62
2021/11/15 01:28:58;;;;;;;17.03;10.27;;;;;;;7.18;100.00;97198.00;5105436;28;20471;-62
2021/11/15 01:31:24;;;;;;;15.77;10.07;;;;;;;7.23;100.00;97203.41;5103554;28;20380;-62
2021/11/15 01:33:50;;;;;;;16.73;10.15;;;;;;;7.14;100.00;97194.16;5094335;28;20446;-62
2021/11/15 01:36:15;;;;;;;14.40;9.55;;;;;;;7.02;100.00;97193.88;5112523;28;20384;-62
2021/11/15 01:38:40;;;;;;;14.37;9.30;;;;;;;7.10;99.89;97192.94;5112990;28;20400;-62
2021/11/15 01:41:07;;;;;;;13.27;9.30;;;;;;;7.06;99.86;97202.16;5104899;28;20417;-62
2021/11/15 01:43:33;;;;;;;13.80;8.70;;;;;;;6.88;100.00;97197.44;5107240;28;20184;-61
2021/11/15 01:45:59;;;;;;;14.07;8.10;;;;;;;6.91;100.00;97199.66;5097304;28;20185;-62
2021/11/15 01:48:24;;;;;;;15.43;7.80;;;;;;;6.93;100.00;97197.66;5094553;28;20225;-61
2021/11/15 01:50:50;;;;;;;;;;;;;;;6.82;100.00;97198.22;5094438;28;20028;-61
2021/11/15 01:53:15;;;;;;;;;;;;;;;6.83;100.00;97196.41;5093877;28;19912;-61
2021/11/15 01:55:41;;;;;;;;;;;;;;;6.82;100.00;97193.00;5092351;28;19923;-62
2021/11/15 01:58:08;;;;;;;;;;;;;;;6.84;100.00;97192.81;5107237;28;20385;-63
2021/11/15 02:00:38;;;;;;;;;;;;;;;6.76;99.71;97196.38;5113860;28;19915;-62
2021/11/15 02:03:03;;;;;;;;;;;;;;;6.74;100.00;97190.56;5114345;28;19919;-62
2021/11/15 02:05:29;;;;;;;;;;;;;;;6.74;100.00;97192.38;5113101;28;19919;-63
2021/11/15 02:07:54;;;;;;;;;;;;;;;6.64;100.00;97190.91;5102306;28;19969;-62
2021/11/15 02:10:20;;;;;;;;;;;;;;;6.63;100.00;97194.50;5094026;28;19911;-63
2021/11/15 02:12:45;;;;;;;;;;;;;;;6.65;100.00;97187.31;5113314;28;19976;-63
2021/11/15 02:15:12;;;;;;;;;;;;;;;6.68;99.28;97186.94;5113580;28;19911;-63
2021/11/15 02:17:38;;;;;;;;;;;;;;;6.70;98.53;97178.91;5104258;28;19961;-63
2021/11/15 02:20:08;;;;;;;;;;;;;;;6.60;98.02;97174.06;5093591;28;19911;-63
2021/11/15 02:22:33;;;;;;;;;;;;;;;6.61;98.08;97180.06;5093941;28;19916;-64
2021/11/15 02:25:00;;;;;;;;;;;;;;;6.55;97.67;97178.22;5093597;28;20337;-63
2021/11/15 02:27:26;;;;;;;8.40;5.20;;;;;;;6.52;97.37;97173.41;5099532;28;20251;-63
2021/11/15 02:29:52;;;;;;;9.00;6.45;;;;;;;6.56;97.91;97166.81;5111932;28;20483;-63
2021/11/15 02:32:17;;;;;;;9.65;6.57;;;;;;;6.61;97.14;97174.84;5076677;28;20424;-65
2021/11/15 02:34:43;;;;;;;9.23;6.57;;;;;;;6.66;97.29;97175.09;5108816;28;20446;-63
2021/11/15 02:37:08;;;;;;;9.80;6.60;;;;;;;6.70;96.21;97178.91;5106097;28;20762;-63
2021/11/15 02:39:34;;;;;;;9.93;7.30;;;;;;;6.62;96.98;97176.47;5090359;28;20429;-62
2021/11/15 02:41:59;;;;;;;8.87;6.27;;;;;;;6.68;96.43;97173.91;5092083;28;20716;-63
2021/11/15 02:44:27;;;;;;;9.35;6.45;;;;;;;6.59;97.45;97174.22;5107866;28;20431;-62
2021/11/15 02:46:52;;;;;;;9.97;6.63;;;;;;;6.68;96.00;97173.09;5107607;28;20496;-65
2021/11/15 02:49:18;;;;;;;9.40;6.23;;;;;;;6.58;96.27;97176.03;5091878;28;20393;-62
2021/11/15 02:51:43;;;;;;;10.03;7.17;;;;;;;6.60;96.83;97173.25;5091926;28;20557;-62
2021/11/15 02:54:08;;;;;;;9.53;7.17;;;;;;;6.68;96.81;97178.31;5091845;28;20401;-63
2021/11/15 02:56:35;;;;;;;10.93;7.75;;;;;;;6.55;97.70;97165.22;5092006;28;20389;-63
2021/11/15 02:59:01;;;;;;;9.93;7.47;;;;;;;6.51;98.00;97175.22;5075284;28;20450;-62
2021/11/15 03:01:27;;;;;;;11.52;7.80;;;;;;;6.53;97.46;97175.81;5106169;28;20384;-63
2021/11/15 03:03:52;;;;;;;10.53;7.27;;;;;;;6.53;97.58;97180.22;5100968;28;20401;-63
2021/11/15 03:06:18;;;;;;;11.60;7.50;;;;;;;6.52;97.56;97179.41;5093953;28;20475;-62
2021/11/15 03:08:45;;;;;;;9.77;7.63;;;;;;;6.42;97.82;97168.53;5097251;28;20413;-63
2021/11/15 03:11:10;;;;;;;11.70;7.45;;;;;;;6.50;97.87;97171.00;5108497;28;20430;-63
2021/11/15 03:13:43;;;;;;;10.70;7.70;;;;;;;6.53;96.92;97170.59;5115583;28;20388;-63
2021/11/15 03:16:09;;;;;;;11.87;8.13;;;;;;;6.61;96.19;97174.84;5101486;28;20469;-63
2021/11/15 03:18:37;;;;;;;11.17;7.60;;;;;;;6.52;96.49;97170.81;5112065;28;20805;-64
2021/11/15 03:21:08;;;;;;;12.85;7.88;;;;;;;6.21;98.09;97172.00;5107687;28;20382;-63
2021/11/15 03:23:37;;;;;;;11.50;7.57;;;;;;;6.32;98.03;97178.47;5094384;28;20519;-63
2021/11/15 03:26:03;;;;;;;10.50;7.70;;;;;;;6.27;97.66;97173.03;5095620;28;20397;-62
2021/11/15 03:28:36;;;;;;;12.27;7.47;;;;;;;6.23;98.00;97166.63;5096110;28;20223;-63
2021/11/15 03:31:05;;;;;;;10.10;7.00;;;;;;;6.13;99.03;97173.94;5088731;28;20176;-63
2021/11/15 03:33:32;;;;;;;11.70;6.77;;;;;;;6.23;98.32;97174.41;5115944;28;20190;-63
2021/11/15 03:35:58;;;;;;;11.60;7.10;;;;;;;6.26;97.46;97171.41;5116828;28;20218;-63
2021/11/15 03:38:23;;;;;;;11.20;7.10;;;;;;;6.21;98.15;97161.59;5098126;28;20240;-63
2021/11/15 03:40:49;;;;;;;10.90;6.93;;;;;;;6.31;98.20;97178.66;5111914;28;20206;-63
2021/11/15 03:43:14;;;;;;;;;;;;;;;6.30;97.99;97167.44;5096748;28;20063;-65
2021/11/15 03:45:41;;;;;;;12.37;7.17;;;;;;;6.25;98.61;97180.22;5096068;28;20193;-63
2021/11/15 03:48:08;;;;;;;12.45;8.38;;;;;;;6.30;98.33;97169.25;5093765;28;20443;-63
2021/11/15 03:50:35;;;;;;;13.05;8.30;;;;;;;6.41;98.24;97177.31;5096766;28;20788;-63
2021/11/15 03:53:07;;;;;;;12.07;8.50;;;;;;;6.45;98.08;97175.16;5114824;28;20861;-64
2021/11/15 03:55:33;;;;;;;12.60;8.07;;;;;;;6.50;97.71;97178.81;5105666;28;20878;-64
2021/11/15 03:57:58;;;;;;;13.10;8.70;;;;;;;6.60;97.01;97178.44;5094465;28;20456;-65
2021/11/15 04:00:28;;;;;;;12.80;8.65;;;;;;;6.54;96.69;97172.22;5094897;28;20393;-64
2021/11/15 04:02:57;;;;;;;11.48;8.02;;;;;;;6.62;96.50;97177.28;5097175;28;20418;-63
2021/11/15 04:05:29;;;;;;;12.13;8.20;;;;;;;6.60;96.43;97176.66;5114457;28;20435;-63
2021/11/15 04:07:55;;;;;;;12.70;8.50;;;;;;;6.46;97.52;97171.56;5096009;28;20900;-62
2021/11/15 04:10:32;;;;;;;12.13;8.13;;;;;;;6.30;97.98;97162.22;5114405;28;20398;-63
2021/11/15 04:13:01;;;;;;;12.52;8.50;;;;;;;6.12;99.77;97180.13;5114612;28;20424;-62
2021/11/15 04:15:26;;;;;;;14.95;9.18;;;;;;;6.38;98.67;97164.69;5114044;28;20385;-62
2021/11/15 04:17:52;;;;;;;12.17;8.33;;;;;;;6.33;98.16;97163.66;5106180;28;20500;-62
2021/11/15 04:20:21;;;;;;;11.70;8.32;;;;;;;6.34;98.02;97160.88;5097358;28;20388;-63
2021/11/15 04:22:46;;;;;;;12.85;8.93;;;;;;;6.32;98.74;97156.84;5114574;28;20384;-63
2021/11/15 04:25:12;;;;;;;13.00;8.63;;;;;;;6.26;98.33;97161.81;5113620;28;20895;-63
2021/11/15 04:27:37;;;;;;;13.88;8.77;;;;;;;6.22;99.06;97163.19;5108687;28;20386;-63
2021/11/15 04:30:06;;;;;;;12.33;8.20;;;;;;;6.37;98.53;97177.91;5093979;28;20454;-63
2021/11/15 04:32:32;;;;;;;12.33;8.23;;;;;;;6.44;97.91;97163.94;5110312;28;20400;-63
2021/11/15 04:34:58;;;;;;;13.33;9.00;;;;;;;6.45;98.10;97169.97;5113992;28;20438;-62
2021/11/15 04:37:23;;;;;;;12.48;8.30;;;;;;;6.55;97.60;97176.44;5113743;28;20393;-63
2021/11/15 04:39:49;;;;;;;13.47;8.60;;;;;;;6.43;97.88;97172.75;5113623;28;20471;-63
2021/11/15 04:42:14;;;;;;;13.50;8.50;;;;;;;6.47;98.01;97170.56;5095353;28;20404;-63
2021/11/15 04:44:40;;;;;;;12.65;8.75;;;;;;;6.58;97.15;97168.22;5113920;28;20438;-63
2021/11/15 04:47:05;;;;;;;14.43;8.98;;;;;;;6.47;97.60;97167.94;5112320;28;20393;-63
2021/11/15 04:49:31;;;;;;;12.47;8.70;;;;;;;6.37;98.38;97167.50;5113745;28;20423;-63
2021/11/15 04:51:56;;;;;;;12.17;8.70;;;;;;;6.28;98.34;97169.44;5113095;28;20416;-63
2021/11/15 04:54:22;;;;;;;12.43;8.98;;;;;;;6.30;98.96;97164.06;5111428;28;20392;-63
2021/11/15 04:56:48;;;;;;;12.38;8.85;;;;;;;6.39;98.83;97160.31;5075261;28;20386;-62
2021/11/15 04:59:14;;;;;;;13.20;8.55;;;;;;;6.28;98.84;97163.44;5093945;28;20397;-63
2021/11/15 05:01:40;;;;;;;13.10;9.05;;;;;;;6.22;99.50;97165.81;5093577;28;20386;-63
2021/11/15 05:04:05;;;;;;;14.68;9.50;;;;;;;6.26;99.64;97161.81;5110968;28;20490;-63
2021/11/15 05:06:31;;;;;;;12.60;8.90;;;;;;;6.40;98.76;97162.72;5113211;28;20408;-63
2021/11/15 05:08:56;;;;;;;15.67;9.57;;;;;;;6.36;99.25;97160.66;5095425;28;20809;-63
2021/11/15 05:11:22;;;;;;;15.05;9.65;;;;;;;6.25;99.48;97157.59;5112186;28;20384;-63
2021/11/15 05:13:47;;;;;;;15.57;9.70;;;;;;;6.40;99.30;97161.91;5098806;28;20386;-63
2021/11/15 05:16:13;;;;;;;13.03;9.43;;;;;;;6.27;100.00;97157.41;5093267;28;20473;-63
2021/11/15 05:18:38;;;;;;;14.50;9.80;;;;;;;6.33;99.56;97158.47;5093195;28;20410;-63
2021/11/15 05:21:04;;;;;;;14.13;9.20;;;;;;;6.37;99.42;97164.88;5094984;28;20509;-63
2021/11/15 05:23:29;;;;;;;12.98;9.38;;;;;;;6.26;99.60;97154.00;5100861;28;20512;-63
2021/11/15 05:25:55;;;;;;;14.80;9.67;;;;;;;6.35;99.41;97156.47;5092546;28;20771;-63
2021/11/15 05:28:21;;;;;;;15.55;9.90;;;;;;;6.55;97.89;97146.97;5092244;28;20398;-63
2021/11/15 05:30:47;;;;;;;13.40;9.10;;;;;;;6.52;97.25;97155.97;5092988;28;20397;-62
2021/11/15 05:33:12;;;;;;;12.73;9.03;;;;;;;6.37;97.85;97157.88;5102148;28;20872;-63
2021/11/15 05:35:38;;;;;;;12.40;8.70;;;;;;;6.41;97.61;97160.94;5097904;28;20426;-63
2021/11/15 05:38:05;;;;;;;12.57;8.75;;;;;;;6.31;98.53;97160.44;5109317;28;20414;-63
2021/11/15 05:40:31;;;;;;;13.10;8.98;;;;;;;6.43;98.09;97164.13;5112047;28;20479;-63
2021/11/15 05:42:57;;;;;;;15.25;9.27;;;;;;;6.42;97.99;97158.13;5112533;28;20475;-63
2021/11/15 05:45:25;;;;;;;12.60;8.37;;;;;;;6.34;98.01;97153.06;5111666;28;20396;-63
2021/11/15 05:47:51;;;;;;;14.52;9.15;;;;;;;6.22;98.41;97165.81;5112527;28;20381;-62
2021/11/15 05:50:19;;;;;;;12.68;8.63;;;;;;;6.20;98.58;97177.38;5091129;28;20459;-62
2021/11/15 05:52:45;;;;;;;12.30;8.50;;;;;;;6.28;98.43;97169.44;5092750;28;20455;-63
2021/11/15 05:55:14;;;;;;;14.15;8.77;;;;;;;6.28;97.90;97171.25;5092192;28;20402;-63
2021/11/15 05:57:40;;;;;;;14.40;8.95;;;;;;;6.24;98.05;97176.81;5092459;28;20413;-63
2021/11/15 06:00:08;;;;;;;12.40;8.50;;;;;;;6.24;97.47;97184.63;5094394;28;20394;-62
2021/11/15 06:02:34;;;;;;;13.37;8.80;;;;;;;6.26;98.47;97181.84;5101572;28;20489;-63
2021/11/15 06:04:59;;;;;;;13.50;8.80;;;;;;;6.31;97.92;97169.06;5105660;28;20896;-63
2021/11/15 06:07:25;;;;;;;13.43;8.90;;;;;;;6.49;97.35;97176.38;5111536;28;20487;-63
2021/11/15 06:09:50;;;;;;;14.93;8.33;;;;;;;6.51;96.70;97182.22;5110441;28;20483;-63
2021/11/15 06:12:16;;;;;;;16.23;9.80;;;;;;;6.42;97.71;97184.16;5094204;28;20492;-63
2021/11/15 06:14:41;;;;;;;15.27;10.57;;;;;;;6.47;96.87;97183.56;5102048;28;20390;-63
2021/11/15 06:17:06;;;;;;;15.80;10.80;;;;;;;6.53;96.22;97183.63;5090829;28;20512;-63
2021/11/15 06:19:32;;;;;;;13.75;9.15;;;;;;;6.64;96.15;97183.09;5091828;28;20382;-67
2021/11/15 06:21:57;;;;;;;14.70;9.23;;;;;;;6.56;96.56;97192.88;5107737;28;20923;-65
2021/11/15 06:24:23;;;;;;;12.98;9.25;;;;;;;6.66;96.25;97193.31;5089548;28;20476;-65
2021/11/15 06:26:48;;;;;;;12.60;8.83;;;;;;;6.51;97.28;97187.41;5091768;28;20390;-65
2021/11/15 06:29:13;;;;;;;14.10;9.10;;;;;;;6.68;96.12;97196.53;5110653;28;20388;-65
2021/11/15 06:31:39;;;;;;;15.80;9.83;;;;;;;6.63;96.39;97193.72;5101728;28;20386;-64
2021/11/15 06:34:04;;;;;;;13.93;9.20;;;;;;;6.76;95.76;97200.78;5091683;28;20389;-64
2021/11/15 06:36:31;;;;;;;13.20;9.10;;;;;;;6.73;95.99;97198.56;5093666;28;20852;-65
2021/11/15 06:38:58;;;;;;;13.65;9.30;;;;;;;6.46;97.17;97200.22;5089040;28;20421;-65
2021/11/15 06:41:25;;;;;;;14.35;9.00;;;;;;;6.46;97.88;97201.03;5091932;28;20405;-65
2021/11/15 06:43:51;;;;;;;13.63;9.03;;;;;;;6.47;98.27;97199.19;5094155;28;20429;-64
2021/11/15 06:46:17;;;;;;;14.95;9.40;;;;;;;6.66;97.14;97204.53;5111803;28;20444;-65
2021/11/15 06:48:42;;;;;;;14.73;9.48;;;;;;;6.55;96.96;97199.88;5090142;28;20402;-64
2021/11/15 06:51:10;;;;;;;15.47;9.10;;;;;;;6.61;96.90;97199.09;5094814;28;20395;-64
2021/11/15 06:53:36;;;;;;;16.25;9.65;;;;;;;6.76;96.27;97201.59;5099201;28;20393;-66
2021/11/15 06:56:03;;;;;;;15.77;9.68;;;;;;;6.71;96.53;97203.16;5091733;28;20430;-64
2021/11/15 06:58:28;;;;;;;15.77;9.82;;;;;;;6.52;97.14;97199.44;5091532;28;20487;-64
2021/11/15 07:00:54;;;;;;;14.03;9.70;;;;;;;6.47;97.77;97201.78;5094652;28;20848;-64
2021/11/15 07:03:20;;;;;;;15.15;9.52;;;;;;;6.56;97.81;97203.28;5089715;28;20420;-64
2021/11/15 07:05:46;;;;;;;13.43;9.20;;;;;;;6.47;97.69;97201.78;5091318;28;20766;-64
2021/11/15 07:08:11;;;;;;;15.67;9.73;;;;;;;6.57;97.11;97197.88;5095162;28;20396;-65
2021/11/15 07:10:37;;;;;;;14.60;9.37;;;;;;;6.53;96.92;97196.63;5107986;28;20810;-64
2021/11/15 07:13:03;;;;;;;16.27;9.57;;;;;;;6.51;96.65;97198.66;5110908;28;20388;-65
2021/11/15 07:15:29;;;;;;;15.02;9.18;;;;;;;6.55;96.52;97199.06;5111027;28;20396;-66
2021/11/15 07:17:54;;;;;;;14.85;9.52;;;;;;;6.56;96.82;97200.66;5105364;28;20443;-65
2021/11/15 07:20:20;;;;;;;15.68;9.73;;;;;;;6.72;95.77;97195.16;5091403;28;20393;-65
2021/11/15 07:22:48;;;;;;;14.27;9.40;;;;;;;6.83;95.28;97199.81;5108410;28;20385;-66
2021/11/15 07:25:16;;;;;;;14.40;9.50;;;;;;;6.59;96.24;97206.28;5083856;28;20400;-66
2021/11/15 07:27:42;;;;;;;13.60;9.35;;;;;;;6.52;96.68;97197.63;5090885;28;20397;-65
2021/11/15 07:30:09;;;;;;;15.25;9.57;;;;;;;6.65;95.85;97196.91;5090941;28;20517;-65
2021/11/15 07:32:35;;;;;;;14.70;9.55;;;;;;;6.60;96.01;97194.06;5105998;28;20477;-69
2021/11/15 07:35:01;;;;;;;16.20;9.57;;;;;;;6.97;96.90;97200.69;5111017;28;20392;-65
2021/11/15 07:37:27;;;;;;;15.48;8.85;;;;;;;6.90;94.68;97200.69;5092554;28;20420;-67
2021/11/15 07:39:52;;;;;;;13.70;8.80;;;;;;;6.80;94.42;97207.22;5093050;28;20385;-67
2021/11/15 07:42:19;;;;;;;12.60;8.53;;;;;;;6.67;95.03;97207.94;5089949;28;20761;-67
2021/11/15 07:44:45;;;;;;;12.80;8.88;;;;;;;6.59;94.76;97215.91;5102379;28;20388;-66
2021/11/15 07:47:15;;;;;;;12.77;8.77;;;;;;;6.56;95.09;97226.72;5110968;28;20909;-65
2021/11/15 07:49:41;;;;;;;16.00;9.55;;;;;;;6.35;96.34;97226.75;5093162;28;20675;-65
2021/11/15 07:52:06;;;;;;;15.95;9.70;;;;;;;6.31;97.01;97228.91;5095272;28;20756;-65
2021/11/15 07:54:32;;;;;;;13.20;8.80;;;;;;;6.60;95.46;97225.31;5096287;28;20475;-64
2021/11/15 07:56:58;;;;;;;13.68;9.10;;;;;;;6.50;94.97;97235.28;5106815;28;20390;-66
2021/11/15 07:59:23;;;;;;;14.93;8.93;;;;;;;6.43;95.81;97235.22;5094908;28;20784;-65
2021/11/15 08:01:49;;;;;;;13.97;9.23;;;;;;;6.44;96.06;97236.03;5098438;28;20394;-64
2021/11/15 08:04:16;;;;;;;14.02;9.13;;;;;;;6.49;96.53;97231.88;5076518;28;20917;-65
2021/11/15 08:06:42;;;;;;;13.82;9.00;;;;;;;6.54;96.18;97239.09;5099456;28;20440;-66
2021/11/15 08:09:07;;;;;;;15.35;9.60;;;;;;;6.46;96.62;97239.25;5108054;28;20471;-66
2021/11/15 08:11:35;;;;;;;15.15;9.50;;;;;;;6.42;97.21;97238.81;5094787;28;20468;-66
2021/11/15 08:14:01;;;;;;;14.18;9.02;;;;;;;6.51;96.73;97245.50;5096213;28;20903;-65
2021/11/15 08:16:28;;;;;;;14.40;9.18;;;;;;;6.41;97.43;97239.81;5100297;28;20416;-66
2021/11/15 08:18:54;;;;;;;14.88;9.50;;;;;;;6.58;96.86;97243.75;5113879;28;20420;-66
2021/11/15 08:21:21;;;;;;;14.98;9.40;;;;;;;6.60;96.79;97233.94;5114159;28;20384;-69
2021/11/15 08:23:48;;;;;;;16.77;10.52;;;;;;;6.71;95.86;97237.00;5092267;28;20477;-66
2021/11/15 08:26:31;;;;;;;16.48;10.65;;;;;;;6.69;96.40;97227.59;5089685;28;20409;-65
2021/11/15 08:29:06;;;;;;;17.07;11.00;;;;;;;6.74;96.69;97226.22;5089754;28;20607;-68
2021/11/15 08:31:33;;;;;;;16.25;10.43;;;;;;;6.71;95.99;97229.19;5093753;28;20485;-65
2021/11/15 08:33:59;;;;;;;14.82;10.20;;;;;;;6.87;96.37;97232.31;5094442;28;20521;-65
2021/11/15 08:36:25;;;;;;;15.20;10.23;;;;;;;6.78;95.96;97237.88;5103170;28;20944;-65
2021/11/15 08:39:08;;;;;;;16.10;9.32;;;;;;;6.77;96.10;97237.06;5091470;28;20410;-65
2021/11/15 08:41:36;;;;;;;17.38;10.70;;;;;;;6.85;95.99;97239.53;5094793;28;20511;-65
2021/11/15 08:44:05;;;;;;;15.13;9.60;;;;;;;6.75;96.15;97235.63;5091796;28;20914;-67
2021/11/15 08:46:32;;;;;;;14.73;9.63;;;;;;;7.08;94.40;97236.63;5076028;28;20465;-65
2021/11/15 08:48:59;;;;;;;15.70;10.00;;;;;;;7.03;95.85;97236.41;5093975;28;20899;-66
2021/11/15 08:51:25;;;;;;;14.18;9.52;;;;;;;6.84;95.40;97230.09;5093786;28;20404;-66
2021/11/15 08:53:55;;;;;;;16.23;9.40;;;;;;;6.79;96.58;97240.28;5094975;28;20462;-64
2021/11/15 08:56:21;;;;;;;14.85;9.70;;;;;;;6.83;96.51;97238.91;5093711;28;20732;-64
2021/11/15 08:58:48;;;;;;;15.60;9.82;;;;;;;6.86;97.19;97238.50;5104513;28;20862;-64
2021/11/15 09:01:15;;;;;;;14.30;9.40;;;;;;;6.69;96.57;97237.19;5110904;28;20384;-65
2021/11/15 09:03:42;;;;;;;15.68;10.15;;;;;;;6.59;98.44;97257.56;5111792;28;20434;-65
2021/11/15 09:06:08;;;;;;;17.88;10.98;;;;;;;6.56;99.05;97242.34;5113355;28;20420;-65
2021/11/15 09:08:35;;;;;;;17.10;11.68;;;;;;;6.65;98.26;97249.00;5113318;28;20436;-65
2021/11/15 09:11:01;;;;;;;18.55;11.48;;;;;;;6.49;99.02;97250.09;5091618;28;20398;-65
2021/11/15 09:13:27;;;;;;;18.52;11.20;;;;;;;6.57;98.86;97246.56;5109239;28;20748;-65
2021/11/15 09:15:52;;;;;;;16.13;11.25;;;;;;;6.60;98.59;97248.78;5094730;28;20396;-66
2021/11/15 09:18:18;;;;;;;15.80;10.77;;;;;;;6.37;99.69;97249.00;5104061;28;20758;-66
2021/11/15 09:20:43;;;;;;;17.00;11.63;;;;;;;6.43;99.10;97250.03;5102278;28;20421;-66
2021/11/15 09:23:09;;;;;;;16.93;11.40;;;;;;;6.25;100.00;97253.09;5091727;28;20425;-66
2021/11/15 09:25:35;;;;;;;19.07;11.57;;;;;;;6.41;99.37;97246.84;5092594;28;20822;-66
2021/11/15 09:28:00;;;;;;;17.83;11.30;;;;;;;6.40;100.00;97247.81;5093298;28;20455;-65
2021/11/15 09:30:27;;;;;;;16.63;11.63;;;;;;;6.58;98.42;97248.13;5096429;28;20480;-66
2021/11/15 09:32:52;;;;;;;17.13;11.50;;;;;;;6.54;99.62;97245.13;5110082;28;20482;-68
2021/11/15 09:35:19;;;;;;;16.00;11.37;;;;;;;6.52;99.03;97241.13;5094475;28;20464;-67
2021/11/15 09:37:45;;;;;;;19.85;11.68;;;;;;;6.64;99.28;97247.38;5094837;28;20794;-67
2021/11/15 09:40:11;;;;;;;17.27;12.25;;;;;;;6.43;100.00;97243.03;5104231;28;20384;-67
2021/11/15 09:42:38;;;;;;;19.10;12.27;;;;;;;6.59;99.52;97245.34;5112910;28;20399;-66
2021/11/15 09:45:07;;;;;;;19.27;11.73;;;;;;;6.33;100.00;97247.78;5112496;28;20499;-66
2021/11/15 09:47:33;;;;;;;17.95;12.18;;;;;;;6.49;100.00;97238.88;5112355;28;20740;-68
2021/11/15 09:50:01;;;;;;;18.33;12.35;;;;;;;6.73;98.63;97233.25;5102112;28;20394;-67
2021/11/15 09:52:27;;;;;;;15.80;10.88;;;;;;;6.69;98.88;97237.19;5094400;28;20399;-66
2021/11/15 09:54:52;;;;;;;16.07;11.50;;;;;;;6.72;99.19;97236.03;5098883;28;20374;-67
2021/11/15 09:57:19;;;;;;;15.00;10.70;;;;;;;6.89;97.07;97232.94;5100783;28;20801;-67
2021/11/15 09:59:45;;;;;;;15.55;11.30;;;;;;;6.87;96.93;97232.31;5102808;28;20384;-67
2021/11/15 10:02:11;;;;;;;17.15;11.00;;;;;;;6.64;98.04;97234.38;5109697;28;20392;-67
2021/11/15 10:04:37;;;;;;;15.55;10.95;;;;;;;6.42;98.69;97236.22;5093634;28;20435;-67
2021/11/15 10:07:03;;;;;;;16.60;11.03;;;;;;;6.61;98.45;97237.38;5107857;28;20451;-67
2021/11/15 10:09:39;;;;;;;16.20;12.00;;;;;;;6.76;97.21;97226.81;5090483;28;20469;-67
2021/11/15 10:12:22;;;;;;;16.03;11.27;;;;;;;6.64;98.14;97216.94;5090865;28;20416;-66
2021/11/15 10:15:03;;;;;;;16.70;11.52;;;;;;;6.64;98.81;97222.16;5092776;28;20413;-67
2021/11/15 10:17:44;;;;;;;18.05;11.43;;;;;;;6.82;99.24;97226.88;5091702;28;20457;-66
2021/11/15 10:20:10;;;;;;;19.73;12.10;;;;;;;6.94;96.74;97233.16;5092134;28;20386;-67
2021/11/15 10:22:36;;;;;;;18.40;11.48;;;;;;;7.18;95.78;97225.84;5092121;28;20401;-67
2021/11/15 10:25:02;;;;;;;17.95;11.93;;;;;;;7.21;95.58;97222.84;5100047;28;20737;-67
2021/11/15 10:27:29;;;;;;;17.25;11.52;;;;;;;7.31;94.63;97216.28;5092088;28;20405;-67
2021/11/15 10:29:55;;;;;;;19.30;12.55;;;;;;;7.32;93.82;97211.88;5090548;28;20396;-67
2021/11/15 10:32:28;;;;;;;17.73;12.13;;;;;;;7.32;94.15;97210.06;5091583;28;20397;-66
2021/11/15 10:35:01;;;;;;;21.63;12.45;;;;;;;7.41;93.83;97216.69;5100856;28;20420;-67
2021/11/15 10:37:31;;;;;;;17.50;11.65;;;;;;;7.56;92.53;97215.75;5091706;28;20932;-66
2021/11/15 10:39:58;;;;;;;17.35;11.75;;;;;;;7.48;93.39;97216.72;5093270;28;20444;-66
2021/11/15 10:42:29;;;;;;;17.42;11.68;;;;;;;7.31;94.64;97207.63;5091961;28;20416;-66
2021/11/15 10:45:01;;;;;;;20.50;12.90;;;;;;;7.39;94.11;97212.69;5100584;28;20392;-68
2021/11/15 10:47:49;;;;;;;18.42;12.48;;;;;;;7.49;93.63;97213.13;5108423;28;20452;-66
2021/11/15 10:50:25;;;;;;;19.63;12.53;;;;;;;7.41;92.90;97208.88;5109016;28;20399;-66
2021/11/15 10:53:07;;;;;;;19.53;12.37;;;;;;;7.32;93.82;97199.63;5112074;28;20388;-65
2021/11/15 10:55:48;;;;;;;18.05;11.75;;;;;;;7.67;92.26;97205.56;5090329;28;20394;-66
2021/11/15 10:58:19;;;;;;;18.67;12.25;;;;;;;7.74;91.64;97214.22;5091468;28;20420;-66
2021/11/15 11:01:00;;;;;;;18.92;12.15;;;;;;;7.74;91.20;97211.59;5092657;28;20386;-66
2021/11/15 11:03:28;;;;;;;18.30;12.38;;;;;;;7.57;92.10;97212.97;5091496;28;20896;-66
2021/11/15 11:05:57;;;;;;;18.40;12.13;;;;;;;7.60;91.07;97209.13;5091718;28;20435;-66
2021/11/15 11:08:25;;;;;;;17.98;12.25;;;;;;;7.44;92.51;97198.06;5102342;28;20422;-66
2021/11/15 11:10:55;;;;;;;19.58;12.02;;;;;;;7.37;92.76;97199.84;5096918;28;20390;-66
2021/11/15 11:13:26;;;;;;;18.58;12.30;;;;;;;7.44;92.03;97195.47;5109256;28;20467;-64
2021/11/15 11:15:54;;;;;;;18.23;12.37;;;;;;;7.46;92.35;97197.88;5111961;28;20802;-64
2021/11/15 11:18:32;;;;;;;16.90;12.25;;;;;;;7.42;93.09;97199.25;5097863;28;20830;-65
2021/11/15 11:21:25;;;;;;;16.92;11.23;;;;;;;7.26;93.32;97197.81;5094118;28;20469;-65
2021/11/15 11:26:33;;;;;;;16.27;11.30;;;;;;;7.52;90.73;97189.28;5102601;28;20494;-66
2021/11/15 11:29:05;;;;;;;16.98;11.20;;;;;;;7.38;90.85;97195.44;5092334;28;20400;-65
2021/11/15 11:31:33;;;;;;;16.67;11.13;;;;;;;7.57;90.88;97183.47;5102495;28;20392;-65
2021/11/15 11:34:00;;;;;;;16.00;10.93;;;;;;;7.50;90.42;97189.47;5103285;28;20412;-65
2021/11/15 11:36:26;;;;;;;18.67;11.20;;;;;;;7.60;90.22;97189.06;5112739;28;20461;-65